sensor_id;sensor_type;location;lat;lon;timestamp;P1;P2;P0
13030;PMS7003;6582;54.644;9.760;2023-06-24T00:00:02;67.1;55.4;
13030;PMS7003;6582;54.644;9.760;2023-06-24T00:05:02;66.7;55.2;
13030;PMS7003;6582;54.644;9.760;2023-06-24T00:10:01;69.4;57.5;
13030;PMS7003;6582;54.644;9.760;2023-06-24T00:15:01;69.4;57.4;
13030;PMS7003;6582;54.644;9.760;2023-06-24T00:20:01;69.8;57.6;
13030;PMS7003;6582;54.644;9.760;2023-06-24T00:25:01;70.8;58.2;
13030;PMS7003;6582;54.644;9.760;2023-06-24T00:30:01;71.3;58.5;
13030;PMS7003;6582;54.644;9.760;2023-06-24T00:35:01;68.4;56.0;
13030;PMS7003;6582;54.644;9.760;2023-06-24T00:40:01;68.7;56.3;
13030;PMS7003;6582;54.644;9.760;2023-06-24T00:45:02;68.6;56.1;
13030;PMS7003;6582;54.644;9.760;2023-06-24T00:50:01;68.0;55.7;
13030;PMS7003;6582;54.644;9.760;2023-06-24T00:55:06;68.2;55.9;
13030;PMS7003;6582;54.644;9.760;2023-06-24T01:00:02;68.7;56.1;
13030;PMS7003;6582;54.644;9.760;2023-06-24T01:05:01;68.6;56.0;
13030;PMS7003;6582;54.644;9.760;2023-06-24T01:10:06;68.4;55.9;
13030;PMS7003;6582;54.644;9.760;2023-06-24T01:15:06;69.3;56.6;
13030;PMS7003;6582;54.644;9.760;2023-06-24T01:20:04;69.9;57.1;
13030;PMS7003;6582;54.644;9.760;2023-06-24T01:45:01;79.2;65.4;
13030;PMS7003;6582;54.644;9.760;2023-06-24T01:50:01;79.0;65.6;
13030;PMS7003;6582;54.644;9.760;2023-06-24T01:55:01;79.3;65.5;
13030;PMS7003;6582;54.644;9.760;2023-06-24T02:00:01;77.3;63.6;
13030;PMS7003;6582;54.644;9.760;2023-06-24T02:05:02;78.3;64.8;
13030;PMS7003;6582;54.644;9.760;2023-06-24T02:10:01;77.3;64.3;
13030;PMS7003;6582;54.644;9.760;2023-06-24T02:15:01;77.5;65.2;
13030;PMS7003;6582;54.644;9.760;2023-06-24T02:20:01;78.0;67.0;
13030;PMS7003;6582;54.644;9.760;2023-06-24T02:25:01;79.9;69.3;
13030;PMS7003;6582;54.644;9.760;2023-06-24T02:30:02;78.2;67.4;
13030;PMS7003;6582;54.644;9.760;2023-06-24T02:35:01;77.9;66.5;
13030;PMS7003;6582;54.644;9.760;2023-06-24T02:40:01;76.7;64.1;
13030;PMS7003;6582;54.644;9.760;2023-06-24T02:45:01;74.9;60.9;
13030;PMS7003;6582;54.644;9.760;2023-06-24T02:50:02;79.2;65.3;
13030;PMS7003;6582;54.644;9.760;2023-06-24T02:55:01;78.2;64.5;
13030;PMS7003;6582;54.644;9.760;2023-06-24T03:00:02;78.0;64.5;
13030;PMS7003;6582;54.644;9.760;2023-06-24T03:05:01;77.2;64.3;
13030;PMS7003;6582;54.644;9.760;2023-06-24T03:10:02;77.1;64.6;
13030;PMS7003;6582;54.644;9.760;2023-06-24T03:15:06;72.1;58.7;
13030;PMS7003;6582;54.644;9.760;2023-06-24T03:20:01;74.4;61.0;
13030;PMS7003;6582;54.644;9.760;2023-06-24T03:25:01;76.5;63.7;
13030;PMS7003;6582;54.644;9.760;2023-06-24T03:30:01;79.0;66.3;
13030;PMS7003;6582;54.644;9.760;2023-06-24T03:35:02;78.5;66.2;
13030;PMS7003;6582;54.644;9.760;2023-06-24T03:40:06;77.7;65.5;
13030;PMS7003;6582;54.644;9.760;2023-06-24T03:45:02;76.5;63.8;
13030;PMS7003;6582;54.644;9.760;2023-06-24T03:50:01;74.5;61.2;
13030;PMS7003;6582;54.644;9.760;2023-06-24T03:55:01;73.4;60.7;
13030;PMS7003;6582;54.644;9.760;2023-06-24T04:00:01;74.0;61.8;
13030;PMS7003;6582;54.644;9.760;2023-06-24T04:05:01;75.0;63.2;
13030;PMS7003;6582;54.644;9.760;2023-06-24T04:10:02;74.9;64.0;
13030;PMS7003;6582;54.644;9.760;2023-06-24T04:15:02;75.7;65.2;
13030;PMS7003;6582;54.644;9.760;2023-06-24T04:20:01;75.6;64.9;
13030;PMS7003;6582;54.644;9.760;2023-06-24T04:25:06;76.3;65.7;
13030;PMS7003;6582;54.644;9.760;2023-06-24T04:30:01;76.5;66.2;
13030;PMS7003;6582;54.644;9.760;2023-06-24T04:35:06;77.0;66.6;
13030;PMS7003;6582;54.644;9.760;2023-06-24T04:45:01;77.1;67.0;
13030;PMS7003;6582;54.644;9.760;2023-06-24T04:55:06;77.2;67.3;
13030;PMS7003;6582;54.644;9.760;2023-06-24T05:00:06;76.5;66.5;
13030;PMS7003;6582;54.644;9.760;2023-06-24T05:05:01;75.6;65.5;
13030;PMS7003;6582;54.644;9.760;2023-06-24T05:10:01;74.7;64.2;
13030;PMS7003;6582;54.644;9.760;2023-06-24T05:15:01;73.0;61.9;
13030;PMS7003;6582;54.644;9.760;2023-06-24T05:20:01;71.6;59.8;
13030;PMS7003;6582;54.644;9.760;2023-06-24T05:25:01;71.0;58.8;
13030;PMS7003;6582;54.644;9.760;2023-06-24T05:30:02;79.0;68.2;
13030;PMS7003;6582;54.644;9.760;2023-06-24T05:35:01;78.8;67.8;
13030;PMS7003;6582;54.644;9.760;2023-06-24T05:40:07;79.5;68.6;
13030;PMS7003;6582;54.644;9.760;2023-06-24T05:45:01;79.1;68.1;
13030;PMS7003;6582;54.644;9.760;2023-06-24T05:50:03;79.2;68.1;
13030;PMS7003;6582;54.644;9.760;2023-06-24T05:55:01;71.0;58.3;
13030;PMS7003;6582;54.644;9.760;2023-06-24T06:00:01;70.4;57.8;
13030;PMS7003;6582;54.644;9.760;2023-06-24T06:05:05;69.3;56.8;
13030;PMS7003;6582;54.644;9.760;2023-06-24T06:10:01;69.1;56.6;
13030;PMS7003;6582;54.644;9.760;2023-06-24T06:15:02;70.7;60.1;
13030;PMS7003;6582;54.644;9.760;2023-06-24T06:20:01;72.0;62.4;
13030;PMS7003;6582;54.644;9.760;2023-06-24T06:25:01;73.1;64.4;
13030;PMS7003;6582;54.644;9.760;2023-06-24T06:30:01;74.6;67.2;
13030;PMS7003;6582;54.644;9.760;2023-06-24T06:35:01;75.8;69.9;
13030;PMS7003;6582;54.644;9.760;2023-06-24T06:40:01;74.7;68.0;
13030;PMS7003;6582;54.644;9.760;2023-06-24T06:45:02;74.9;68.6;
13030;PMS7003;6582;54.644;9.760;2023-06-24T06:50:01;75.3;69.4;
13030;PMS7003;6582;54.644;9.760;2023-06-24T06:55:01;75.9;70.5;
13030;PMS7003;6582;54.644;9.760;2023-06-24T07:00:01;75.8;70.3;
13030;PMS7003;6582;54.644;9.760;2023-06-24T07:05:06;76.5;71.7;
13030;PMS7003;6582;54.644;9.760;2023-06-24T07:10:01;76.6;72.2;
13030;PMS7003;6582;54.644;9.760;2023-06-24T07:15:01;77.9;74.0;
13030;PMS7003;6582;54.644;9.760;2023-06-24T07:20:01;79.1;75.5;
13030;PMS7003;6582;54.644;9.760;2023-06-24T07:25:01;82.4;79.9;
13030;PMS7003;6582;54.644;9.760;2023-06-24T07:30:01;84.6;82.9;
13030;PMS7003;6582;54.644;9.760;2023-06-24T07:35:06;88.2;86.9;
13030;PMS7003;6582;54.644;9.760;2023-06-24T07:40:01;91.4;90.7;
13030;PMS7003;6582;54.644;9.760;2023-06-24T07:45:01;95.6;95.2;
13030;PMS7003;6582;54.644;9.760;2023-06-24T07:50:02;99.4;99.0;
13030;PMS7003;6582;54.644;9.760;2023-06-24T07:55:01;103.8;103.2;
13030;PMS7003;6582;54.644;9.760;2023-06-24T08:00:01;105.2;104.8;
13030;PMS7003;6582;54.644;9.760;2023-06-24T08:05:01;107.7;107.3;
13030;PMS7003;6582;54.644;9.760;2023-06-24T08:10:01;102.4;101.5;
13030;PMS7003;6582;54.644;9.760;2023-06-24T08:15:02;103.0;102.2;
13030;PMS7003;6582;54.644;9.760;2023-06-24T08:20:02;103.3;102.7;
13030;PMS7003;6582;54.644;9.760;2023-06-24T08:25:01;107.4;106.8;
13030;PMS7003;6582;54.644;9.760;2023-06-24T08:30:01;108.8;108.1;
13030;PMS7003;6582;54.644;9.760;2023-06-24T08:35:01;114.6;114.3;
13030;PMS7003;6582;54.644;9.760;2023-06-24T08:40:01;116.6;116.4;
13030;PMS7003;6582;54.644;9.760;2023-06-24T08:45:01;120.0;119.7;
13030;PMS7003;6582;54.644;9.760;2023-06-24T08:50:04;119.4;118.9;
13030;PMS7003;6582;54.644;9.760;2023-06-24T08:55:01;121.7;120.3;
13030;PMS7003;6582;54.644;9.760;2023-06-24T09:00:02;121.4;120.1;
13030;PMS7003;6582;54.644;9.760;2023-06-24T09:05:01;116.8;115.6;
13030;PMS7003;6582;54.644;9.760;2023-06-24T09:10:01;110.3;109.0;
13030;PMS7003;6582;54.644;9.760;2023-06-24T09:15:01;105.6;104.7;
13030;PMS7003;6582;54.644;9.760;2023-06-24T09:20:03;98.1;97.9;
13030;PMS7003;6582;54.644;9.760;2023-06-24T09:25:01;94.2;94.0;
13030;PMS7003;6582;54.644;9.760;2023-06-24T09:30:05;91.4;91.2;
13030;PMS7003;6582;54.644;9.760;2023-06-24T09:35:06;90.1;89.9;
13030;PMS7003;6582;54.644;9.760;2023-06-24T09:40:01;91.8;91.6;
13030;PMS7003;6582;54.644;9.760;2023-06-24T09:45:05;91.8;91.7;
13030;PMS7003;6582;54.644;9.760;2023-06-24T09:50:04;100.8;100.8;
13030;PMS7003;6582;54.644;9.760;2023-06-24T09:55:06;117.6;117.1;
13030;PMS7003;6582;54.644;9.760;2023-06-24T10:00:01;127.2;125.2;
13030;PMS7003;6582;54.644;9.760;2023-06-24T10:05:02;124.7;122.3;
13030;PMS7003;6582;54.644;9.760;2023-06-24T10:10:02;127.5;124.4;
13030;PMS7003;6582;54.644;9.760;2023-06-24T10:15:01;120.7;117.3;
13030;PMS7003;6582;54.644;9.760;2023-06-24T10:20:04;104.8;101.6;
13030;PMS7003;6582;54.644;9.760;2023-06-24T10:25:02;93.7;92.0;
13030;PMS7003;6582;54.644;9.760;2023-06-24T10:30:06;94.5;92.8;
13030;PMS7003;6582;54.644;9.760;2023-06-24T10:35:03;94.0;92.8;
13030;PMS7003;6582;54.644;9.760;2023-06-24T10:40:02;94.1;92.8;
13030;PMS7003;6582;54.644;9.760;2023-06-24T10:45:12;93.8;92.9;
13030;PMS7003;6582;54.644;9.760;2023-06-24T10:50:01;95.6;94.2;
13030;PMS7003;6582;54.644;9.760;2023-06-24T10:55:01;99.6;98.4;
13030;PMS7003;6582;54.644;9.760;2023-06-24T11:00:02;102.5;101.5;
13030;PMS7003;6582;54.644;9.760;2023-06-24T11:05:02;105.8;104.8;
13030;PMS7003;6582;54.644;9.760;2023-06-24T11:10:07;112.1;110.7;
13030;PMS7003;6582;54.644;9.760;2023-06-24T11:15:03;126.2;124.3;
13030;PMS7003;6582;54.644;9.760;2023-06-24T11:20:02;135.3;132.6;
13030;PMS7003;6582;54.644;9.760;2023-06-24T11:25:02;137.0;134.1;
13030;PMS7003;6582;54.644;9.760;2023-06-24T11:30:02;141.6;138.4;
13030;PMS7003;6582;54.644;9.760;2023-06-24T11:35:02;145.6;142.0;
13030;PMS7003;6582;54.644;9.760;2023-06-24T11:40:02;137.8;134.6;
13030;PMS7003;6582;54.644;9.760;2023-06-24T11:45:03;132.7;130.0;
13030;PMS7003;6582;54.644;9.760;2023-06-24T11:50:02;134.8;132.2;
13030;PMS7003;6582;54.644;9.760;2023-06-24T11:55:02;136.2;133.5;
13030;PMS7003;6582;54.644;9.760;2023-06-24T12:00:01;136.2;133.5;
13030;PMS7003;6582;54.644;9.760;2023-06-24T12:05:03;137.0;134.6;
13030;PMS7003;6582;54.644;9.760;2023-06-24T12:10:01;131.0;129.0;
13030;PMS7003;6582;54.644;9.760;2023-06-24T12:15:01;130.8;128.8;
13030;PMS7003;6582;54.644;9.760;2023-06-24T12:20:01;135.0;132.8;
13030;PMS7003;6582;54.644;9.760;2023-06-24T12:25:01;140.0;137.8;
13030;PMS7003;6582;54.644;9.760;2023-06-24T12:30:01;143.1;140.8;
13030;PMS7003;6582;54.644;9.760;2023-06-24T12:35:01;153.9;151.1;
13030;PMS7003;6582;54.644;9.760;2023-06-24T12:40:02;159.5;156.0;
13030;PMS7003;6582;54.644;9.760;2023-06-24T12:45:01;154.0;151.0;
13030;PMS7003;6582;54.644;9.760;2023-06-24T12:50:01;149.8;147.4;
13030;PMS7003;6582;54.644;9.760;2023-06-24T12:55:01;150.8;148.5;
13030;PMS7003;6582;54.644;9.760;2023-06-24T13:00:01;145.4;143.6;
13030;PMS7003;6582;54.644;9.760;2023-06-24T13:05:01;146.8;145.1;
13030;PMS7003;6582;54.644;9.760;2023-06-24T13:10:01;154.1;151.6;
13030;PMS7003;6582;54.644;9.760;2023-06-24T13:15:02;162.4;158.4;
13030;PMS7003;6582;54.644;9.760;2023-06-24T13:20:01;169.8;165.0;
13030;PMS7003;6582;54.644;9.760;2023-06-24T13:25:01;179.9;173.5;
13030;PMS7003;6582;54.644;9.760;2023-06-24T13:30:01;176.5;170.2;
13030;PMS7003;6582;54.644;9.760;2023-06-24T13:40:01;176.4;170.0;
13030;PMS7003;6582;54.644;9.760;2023-06-24T13:45:01;172.8;166.5;
13030;PMS7003;6582;54.644;9.760;2023-06-24T13:50:01;170.2;164.3;
13030;PMS7003;6582;54.644;9.760;2023-06-24T13:55:01;174.8;168.7;
13030;PMS7003;6582;54.644;9.760;2023-06-24T14:00:11;177.2;171.2;
13030;PMS7003;6582;54.644;9.760;2023-06-24T14:05:01;176.7;170.5;
13030;PMS7003;6582;54.644;9.760;2023-06-24T14:10:01;179.3;172.8;
13030;PMS7003;6582;54.644;9.760;2023-06-24T14:15:06;172.6;167.2;
13030;PMS7003;6582;54.644;9.760;2023-06-24T14:20:01;172.9;167.4;
13030;PMS7003;6582;54.644;9.760;2023-06-24T14:25:01;168.8;163.8;
13030;PMS7003;6582;54.644;9.760;2023-06-24T14:30:01;164.3;160.8;
13030;PMS7003;6582;54.644;9.760;2023-06-24T14:35:01;160.5;157.8;
13030;PMS7003;6582;54.644;9.760;2023-06-24T14:40:01;162.8;159.7;
13030;PMS7003;6582;54.644;9.760;2023-06-24T14:45:01;156.0;153.7;
13030;PMS7003;6582;54.644;9.760;2023-06-24T14:50:02;155.0;153.7;
13030;PMS7003;6582;54.644;9.760;2023-06-24T14:55:06;155.6;154.1;
13030;PMS7003;6582;54.644;9.760;2023-06-24T15:00:06;157.2;155.8;
13030;PMS7003;6582;54.644;9.760;2023-06-24T15:05:01;152.3;151.4;
13030;PMS7003;6582;54.644;9.760;2023-06-24T15:10:01;148.8;148.2;
13030;PMS7003;6582;54.644;9.760;2023-06-24T15:15:01;141.4;140.8;
13030;PMS7003;6582;54.644;9.760;2023-06-24T15:20:01;139.0;138.5;
13030;PMS7003;6582;54.644;9.760;2023-06-24T15:25:01;134.2;133.6;
13030;PMS7003;6582;54.644;9.760;2023-06-24T15:30:01;133.4;132.9;
13030;PMS7003;6582;54.644;9.760;2023-06-24T15:35:02;133.2;132.5;
13030;PMS7003;6582;54.644;9.760;2023-06-24T15:40:01;134.5;133.8;
13030;PMS7003;6582;54.644;9.760;2023-06-24T15:45:06;128.3;127.7;
13030;PMS7003;6582;54.644;9.760;2023-06-24T15:50:02;122.5;122.0;
13030;PMS7003;6582;54.644;9.760;2023-06-24T15:55:01;124.0;123.5;
13030;PMS7003;6582;54.644;9.760;2023-06-24T16:00:01;129.1;128.6;
13030;PMS7003;6582;54.644;9.760;2023-06-24T16:05:01;130.0;129.2;
13030;PMS7003;6582;54.644;9.760;2023-06-24T16:10:02;127.8;127.1;
13030;PMS7003;6582;54.644;9.760;2023-06-24T16:15:01;133.4;132.5;
13030;PMS7003;6582;54.644;9.760;2023-06-24T16:20:01;130.1;129.0;
13030;PMS7003;6582;54.644;9.760;2023-06-24T16:25:01;122.3;121.5;
13030;PMS7003;6582;54.644;9.760;2023-06-24T16:30:02;118.6;118.0;
13030;PMS7003;6582;54.644;9.760;2023-06-24T16:35:01;118.9;118.3;
13030;PMS7003;6582;54.644;9.760;2023-06-24T16:40:02;112.0;111.8;
13030;PMS7003;6582;54.644;9.760;2023-06-24T16:45:01;109.0;109.0;
13030;PMS7003;6582;54.644;9.760;2023-06-24T16:50:01;107.0;106.8;
13030;PMS7003;6582;54.644;9.760;2023-06-24T17:00:01;104.2;102.2;
13030;PMS7003;6582;54.644;9.760;2023-06-24T17:05:12;101.2;99.3;
13030;PMS7003;6582;54.644;9.760;2023-06-24T17:10:06;99.3;97.1;
13030;PMS7003;6582;54.644;9.760;2023-06-24T17:15:01;96.4;94.3;
13030;PMS7003;6582;54.644;9.760;2023-06-24T17:20:01;89.8;89.3;
13030;PMS7003;6582;54.644;9.760;2023-06-24T17:25:01;89.2;88.5;
13030;PMS7003;6582;54.644;9.760;2023-06-24T17:30:01;88.1;87.4;
13030;PMS7003;6582;54.644;9.760;2023-06-24T17:35:01;86.5;86.0;
13030;PMS7003;6582;54.644;9.760;2023-06-24T17:45:06;87.8;87.2;
13030;PMS7003;6582;54.644;9.760;2023-06-24T17:50:02;85.7;85.5;
13030;PMS7003;6582;54.644;9.760;2023-06-24T17:55:02;84.0;83.4;
13030;PMS7003;6582;54.644;9.760;2023-06-24T18:00:01;83.1;82.2;
13030;PMS7003;6582;54.644;9.760;2023-06-24T18:05:01;81.0;79.9;
13030;PMS7003;6582;54.644;9.760;2023-06-24T18:10:01;78.6;77.4;
13030;PMS7003;6582;54.644;9.760;2023-06-24T18:15:01;77.2;75.6;
13030;PMS7003;6582;54.644;9.760;2023-06-24T18:25:02;77.4;76.2;
13030;PMS7003;6582;54.644;9.760;2023-06-24T18:30:01;77.6;76.1;
13030;PMS7003;6582;54.644;9.760;2023-06-24T18:35:01;77.4;75.7;
13030;PMS7003;6582;54.644;9.760;2023-06-24T18:45:02;76.8;74.8;
13030;PMS7003;6582;54.644;9.760;2023-06-24T18:50:01;75.7;72.8;
13030;PMS7003;6582;54.644;9.760;2023-06-24T18:55:02;75.0;71.5;
13030;PMS7003;6582;54.644;9.760;2023-06-24T19:00:01;73.9;69.4;
13030;PMS7003;6582;54.644;9.760;2023-06-24T19:05:06;73.2;67.9;
13030;PMS7003;6582;54.644;9.760;2023-06-24T19:10:10;72.1;65.9;
13030;PMS7003;6582;54.644;9.760;2023-06-24T19:15:01;71.8;65.1;
13030;PMS7003;6582;54.644;9.760;2023-06-24T19:20:06;71.1;63.9;
13030;PMS7003;6582;54.644;9.760;2023-06-24T19:25:01;71.2;63.7;
13030;PMS7003;6582;54.644;9.760;2023-06-24T19:30:01;70.4;62.4;
13030;PMS7003;6582;54.644;9.760;2023-06-24T19:35:01;76.4;67.8;
13030;PMS7003;6582;54.644;9.760;2023-06-24T19:40:06;75.9;67.2;
13030;PMS7003;6582;54.644;9.760;2023-06-24T19:45:01;75.2;66.0;
13030;PMS7003;6582;54.644;9.760;2023-06-24T19:50:06;74.7;65.2;
13030;PMS7003;6582;54.644;9.760;2023-06-24T19:55:01;74.1;64.6;
13030;PMS7003;6582;54.644;9.760;2023-06-24T20:00:04;67.4;57.7;
13030;PMS7003;6582;54.644;9.760;2023-06-24T20:05:02;67.0;57.3;
13030;PMS7003;6582;54.644;9.760;2023-06-24T20:10:03;66.5;56.6;
13030;PMS7003;6582;54.644;9.760;2023-06-24T20:15:01;66.0;55.8;
13030;PMS7003;6582;54.644;9.760;2023-06-24T20:20:01;72.0;61.2;
13030;PMS7003;6582;54.644;9.760;2023-06-24T20:25:01;71.8;61.1;
13030;PMS7003;6582;54.644;9.760;2023-06-24T20:30:01;71.2;59.9;
13030;PMS7003;6582;54.644;9.760;2023-06-24T20:40:06;71.3;60.1;
13030;PMS7003;6582;54.644;9.760;2023-06-24T20:45:06;64.8;54.0;
13030;PMS7003;6582;54.644;9.760;2023-06-24T20:50:02;63.8;53.0;
13030;PMS7003;6582;54.644;9.760;2023-06-24T21:00:01;63.6;52.4;
13030;PMS7003;6582;54.644;9.760;2023-06-24T21:05:01;62.8;51.8;
13030;PMS7003;6582;54.644;9.760;2023-06-24T21:15:01;63.7;52.1;
13030;PMS7003;6582;54.644;9.760;2023-06-24T21:25:01;63.5;52.2;
13030;PMS7003;6582;54.644;9.760;2023-06-24T21:30:01;64.1;52.6;
13030;PMS7003;6582;54.644;9.760;2023-06-24T21:35:01;63.8;52.4;
13030;PMS7003;6582;54.644;9.760;2023-06-24T21:40:01;63.6;52.4;
13030;PMS7003;6582;54.644;9.760;2023-06-24T21:45:01;63.1;52.1;
13030;PMS7003;6582;54.644;9.760;2023-06-24T21:50:06;63.0;52.0;
13030;PMS7003;6582;54.644;9.760;2023-06-24T21:55:01;62.7;51.7;
13030;PMS7003;6582;54.644;9.760;2023-06-24T22:00:01;63.0;51.9;
13030;PMS7003;6582;54.644;9.760;2023-06-24T22:05:01;62.9;51.8;
13030;PMS7003;6582;54.644;9.760;2023-06-24T22:10:01;64.3;52.5;
13030;PMS7003;6582;54.644;9.760;2023-06-24T22:15:06;68.4;56.1;
13030;PMS7003;6582;54.644;9.760;2023-06-24T22:20:01;69.2;56.6;
13030;PMS7003;6582;54.644;9.760;2023-06-24T22:25:06;70.0;57.4;
13030;PMS7003;6582;54.644;9.760;2023-06-24T22:30:01;72.3;60.7;
13030;PMS7003;6582;54.644;9.760;2023-06-24T22:35:01;73.5;63.0;
13030;PMS7003;6582;54.644;9.760;2023-06-24T22:40:01;71.2;61.4;
13030;PMS7003;6582;54.644;9.760;2023-06-24T22:45:06;72.4;63.4;
13030;PMS7003;6582;54.644;9.760;2023-06-24T22:50:01;73.7;65.0;
13030;PMS7003;6582;54.644;9.760;2023-06-24T22:55:02;73.3;64.4;
13030;PMS7003;6582;54.644;9.760;2023-06-24T23:00:01;77.6;70.4;
13030;PMS7003;6582;54.644;9.760;2023-06-24T23:05:01;78.0;70.9;
13030;PMS7003;6582;54.644;9.760;2023-06-24T23:10:01;78.2;71.1;
13030;PMS7003;6582;54.644;9.760;2023-06-24T23:15:01;79.0;72.8;
13030;PMS7003;6582;54.644;9.760;2023-06-24T23:20:01;80.3;74.7;
13030;PMS7003;6582;54.644;9.760;2023-06-24T23:25:05;78.7;72.8;
13030;PMS7003;6582;54.644;9.760;2023-06-24T23:30:03;82.2;77.7;
13030;PMS7003;6582;54.644;9.760;2023-06-24T23:35:02;86.2;83.0;
13030;PMS7003;6582;54.644;9.760;2023-06-24T23:40:02;89.7;87.4;
13030;PMS7003;6582;54.644;9.760;2023-06-24T23:45:01;91.1;89.3;
13030;PMS7003;6582;54.644;9.760;2023-06-24T23:50:06;91.5;89.8;
13030;PMS7003;6582;54.644;9.760;2023-06-24T23:55:01;89.8;88.4;
